< < Back
Terminal Aerodrome Forecast


Current Version              Previous Versions:   1  2  3  4  5  6  7  8  9  

Terminal Aerodrome Forecast

257
FTUS42 KTAE 211100
TAFABY
TAF
KABY 211120Z 2112/2212 00000KT P6SM SKC
     FM211400 07007KT P6SM FEW250=

Latest METAR

520
SAUS70 KWBC 220000 RRC
MTRABY
METAR KABY 212353Z 05003KT 10SM CLR 12/04 A3035 RMK AO2 SLP279 T01170044
10217 20117 51008 $


USA.gov is the U.S. government's official web portal to all federal, state and local government web resources and services.